sensor_id;sensor_type;location;lat;lon;timestamp;temperature;humidity
42885;DHT22;28534;48.100;11.584;2023-05-07T14:45:48;23.50;55.70
42885;DHT22;28534;48.100;11.584;2023-05-07T14:46:50;24.20;50.50
42885;DHT22;28534;48.100;11.584;2023-05-07T14:47:51;24.20;50.30
42885;DHT22;28534;48.100;11.584;2023-05-07T14:48:53;24.30;50.20
42885;DHT22;28534;48.100;11.584;2023-05-07T14:49:54;24.30;50.30
42885;DHT22;28534;48.100;11.584;2023-05-07T14:50:57;24.30;50.30
42885;DHT22;28534;48.100;11.584;2023-05-07T14:51:58;24.30;50.10
42885;DHT22;28534;48.100;11.584;2023-05-07T14:53:00;24.30;50.30
42885;DHT22;28534;48.100;11.584;2023-05-07T14:54:01;24.30;49.80
42885;DHT22;28534;48.100;11.584;2023-05-07T14:55:04;24.40;49.60
42885;DHT22;28534;48.100;11.584;2023-05-07T14:56:05;24.40;49.50
42885;DHT22;28534;48.100;11.584;2023-05-07T14:57:08;24.40;49.30
42885;DHT22;28534;48.100;11.584;2023-05-07T14:58:11;24.30;49.30
42885;DHT22;28534;48.100;11.584;2023-05-07T14:59:12;24.30;49.20
42885;DHT22;28534;48.100;11.584;2023-05-07T15:00:14;24.40;49.30
42885;DHT22;28534;48.100;11.584;2023-05-07T15:01:16;24.30;49.20
42885;DHT22;28534;48.100;11.584;2023-05-07T15:02:18;24.40;49.40
42885;DHT22;28534;48.100;11.584;2023-05-07T15:03:19;24.40;49.50
42885;DHT22;28534;48.100;11.584;2023-05-07T15:04:20;24.40;49.60
42885;DHT22;28534;48.100;11.584;2023-05-07T15:05:22;24.40;49.70
42885;DHT22;28534;48.100;11.584;2023-05-07T15:06:23;24.40;49.80
42885;DHT22;28534;48.100;11.584;2023-05-07T15:07:25;24.40;49.80
42885;DHT22;28534;48.100;11.584;2023-05-07T15:08:26;24.40;49.80
42885;DHT22;28534;48.100;11.584;2023-05-07T15:09:28;24.40;49.90
42885;DHT22;28534;48.100;11.584;2023-05-07T15:10:30;24.40;49.80
42885;DHT22;28534;48.100;11.584;2023-05-07T15:11:31;24.50;49.80
42885;DHT22;28534;48.100;11.584;2023-05-07T15:12:33;24.50;49.90
42885;DHT22;28534;48.100;11.584;2023-05-07T15:13:33;24.50;49.90
42885;DHT22;28534;48.100;11.584;2023-05-07T15:14:35;24.50;49.90
42885;DHT22;28534;48.100;11.584;2023-05-07T15:15:36;24.50;50.00
42885;DHT22;28534;48.100;11.584;2023-05-07T15:16:39;24.50;50.00
42885;DHT22;28534;48.100;11.584;2023-05-07T15:17:41;24.50;50.00
42885;DHT22;28534;48.100;11.584;2023-05-07T15:18:42;24.50;50.00
42885;DHT22;28534;48.100;11.584;2023-05-07T15:19:44;24.50;50.10
42885;DHT22;28534;48.100;11.584;2023-05-07T15:20:45;24.50;50.20
42885;DHT22;28534;48.100;11.584;2023-05-07T15:21:46;24.50;50.30
42885;DHT22;28534;48.100;11.584;2023-05-07T15:22:47;24.50;50.30
42885;DHT22;28534;48.100;11.584;2023-05-07T15:23:49;24.50;50.30
42885;DHT22;28534;48.100;11.584;2023-05-07T15:24:50;24.50;50.30
42885;DHT22;28534;48.100;11.584;2023-05-07T15:25:52;24.50;50.30
42885;DHT22;28534;48.100;11.584;2023-05-07T15:26:53;24.60;50.60
42885;DHT22;28534;48.100;11.584;2023-05-07T15:27:55;24.60;50.50
42885;DHT22;28534;48.100;11.584;2023-05-07T15:28:56;24.60;50.60
42885;DHT22;28534;48.100;11.584;2023-05-07T15:29:58;24.60;50.60
42885;DHT22;28534;48.100;11.584;2023-05-07T15:30:59;24.60;50.60
42885;DHT22;28534;48.100;11.584;2023-05-07T15:32:02;24.60;50.50
42885;DHT22;28534;48.100;11.584;2023-05-07T15:33:03;24.60;50.60
42885;DHT22;28534;48.100;11.584;2023-05-07T15:34:05;24.60;50.60
42885;DHT22;28534;48.100;11.584;2023-05-07T15:35:06;24.60;50.30
42885;DHT22;28534;48.100;11.584;2023-05-07T15:36:08;24.60;50.20
42885;DHT22;28534;48.100;11.584;2023-05-07T15:37:09;24.60;50.20
42885;DHT22;28534;48.100;11.584;2023-05-07T15:38:10;24.60;50.20
42885;DHT22;28534;48.100;11.584;2023-05-07T15:39:13;24.60;50.20
42885;DHT22;28534;48.100;11.584;2023-05-07T15:40:14;24.60;50.20
42885;DHT22;28534;48.100;11.584;2023-05-07T15:41:15;24.60;50.50
42885;DHT22;28534;48.100;11.584;2023-05-07T15:42:17;24.60;50.40
42885;DHT22;28534;48.100;11.584;2023-05-07T15:43:18;24.60;50.40
42885;DHT22;28534;48.100;11.584;2023-05-07T15:44:20;24.60;50.30
42885;DHT22;28534;48.100;11.584;2023-05-07T15:45:21;24.60;50.30
42885;DHT22;28534;48.100;11.584;2023-05-07T15:46:24;24.60;50.30
42885;DHT22;28534;48.100;11.584;2023-05-07T15:47:26;24.60;50.40
42885;DHT22;28534;48.100;11.584;2023-05-07T15:48:28;24.60;51.00
42885;DHT22;28534;48.100;11.584;2023-05-07T15:49:29;24.60;50.40
42885;DHT22;28534;48.100;11.584;2023-05-07T15:50:30;24.60;50.40
42885;DHT22;28534;48.100;11.584;2023-05-07T15:51:34;24.60;50.50
42885;DHT22;28534;48.100;11.584;2023-05-07T15:52:36;24.60;50.40
42885;DHT22;28534;48.100;11.584;2023-05-07T15:53:38;24.60;50.30
42885;DHT22;28534;48.100;11.584;2023-05-07T15:54:40;24.60;50.30
42885;DHT22;28534;48.100;11.584;2023-05-07T15:55:42;24.60;50.20
42885;DHT22;28534;48.100;11.584;2023-05-07T15:56:44;24.70;50.20
42885;DHT22;28534;48.100;11.584;2023-05-07T15:57:45;24.70;50.20
42885;DHT22;28534;48.100;11.584;2023-05-07T15:58:47;24.70;50.10
42885;DHT22;28534;48.100;11.584;2023-05-07T15:59:49;24.70;50.20
42885;DHT22;28534;48.100;11.584;2023-05-07T16:00:49;24.70;50.10
42885;DHT22;28534;48.100;11.584;2023-05-07T16:01:52;24.70;50.00
42885;DHT22;28534;48.100;11.584;2023-05-07T16:02:54;24.70;50.00
42885;DHT22;28534;48.100;11.584;2023-05-07T16:03:56;24.70;49.90
42885;DHT22;28534;48.100;11.584;2023-05-07T16:04:58;24.70;49.80
42885;DHT22;28534;48.100;11.584;2023-05-07T16:06:00;24.70;49.70
42885;DHT22;28534;48.100;11.584;2023-05-07T16:07:01;24.80;49.60
42885;DHT22;28534;48.100;11.584;2023-05-07T16:08:03;24.70;49.50
42885;DHT22;28534;48.100;11.584;2023-05-07T16:09:05;24.80;49.80
42885;DHT22;28534;48.100;11.584;2023-05-07T16:10:07;24.80;50.00
42885;DHT22;28534;48.100;11.584;2023-05-07T16:11:09;24.80;50.10
42885;DHT22;28534;48.100;11.584;2023-05-07T16:12:10;24.70;49.90
42885;DHT22;28534;48.100;11.584;2023-05-07T16:13:12;24.80;50.20
42885;DHT22;28534;48.100;11.584;2023-05-07T16:14:12;24.70;50.30
42885;DHT22;28534;48.100;11.584;2023-05-07T16:15:14;24.80;50.30
42885;DHT22;28534;48.100;11.584;2023-05-07T16:16:15;24.70;50.40
42885;DHT22;28534;48.100;11.584;2023-05-07T16:17:17;24.70;50.10
42885;DHT22;28534;48.100;11.584;2023-05-07T16:18:19;24.80;49.70
42885;DHT22;28534;48.100;11.584;2023-05-07T16:19:21;24.80;50.00
42885;DHT22;28534;48.100;11.584;2023-05-07T16:20:26;24.70;50.20
42885;DHT22;28534;48.100;11.584;2023-05-07T16:21:30;24.80;50.80
42885;DHT22;28534;48.100;11.584;2023-05-07T16:22:32;24.70;50.00
42885;DHT22;28534;48.100;11.584;2023-05-07T16:23:33;24.70;50.00
42885;DHT22;28534;48.100;11.584;2023-05-07T16:24:36;24.70;49.80
42885;DHT22;28534;48.100;11.584;2023-05-07T16:25:37;24.70;49.90
42885;DHT22;28534;48.100;11.584;2023-05-07T16:26:39;24.70;50.00
42885;DHT22;28534;48.100;11.584;2023-05-07T16:27:39;24.60;50.00
42885;DHT22;28534;48.100;11.584;2023-05-07T16:28:41;24.60;50.10
42885;DHT22;28534;48.100;11.584;2023-05-07T16:29:42;24.70;50.30
42885;DHT22;28534;48.100;11.584;2023-05-07T16:30:44;24.60;50.30
42885;DHT22;28534;48.100;11.584;2023-05-07T16:31:44;24.70;50.40
42885;DHT22;28534;48.100;11.584;2023-05-07T16:32:46;24.70;50.40
42885;DHT22;28534;48.100;11.584;2023-05-07T16:33:48;24.70;50.50
42885;DHT22;28534;48.100;11.584;2023-05-07T16:34:50;24.60;50.50
42885;DHT22;28534;48.100;11.584;2023-05-07T16:35:51;24.60;50.50
42885;DHT22;28534;48.100;11.584;2023-05-07T16:36:53;24.70;50.30
42885;DHT22;28534;48.100;11.584;2023-05-07T16:37:54;24.70;49.80
42885;DHT22;28534;48.100;11.584;2023-05-07T16:38:55;24.70;49.80
42885;DHT22;28534;48.100;11.584;2023-05-07T16:39:56;24.60;50.20
42885;DHT22;28534;48.100;11.584;2023-05-07T16:41:00;24.70;50.50
42885;DHT22;28534;48.100;11.584;2023-05-07T16:42:00;24.60;50.60
42885;DHT22;28534;48.100;11.584;2023-05-07T16:43:02;24.60;50.70
42885;DHT22;28534;48.100;11.584;2023-05-07T16:44:03;24.70;50.80
42885;DHT22;28534;48.100;11.584;2023-05-07T16:45:06;24.70;50.90
42885;DHT22;28534;48.100;11.584;2023-05-07T16:46:07;24.70;50.90
42885;DHT22;28534;48.100;11.584;2023-05-07T16:47:08;24.70;50.90
42885;DHT22;28534;48.100;11.584;2023-05-07T16:48:09;24.70;50.90
42885;DHT22;28534;48.100;11.584;2023-05-07T16:49:12;24.70;51.00
42885;DHT22;28534;48.100;11.584;2023-05-07T16:50:13;24.70;51.00
42885;DHT22;28534;48.100;11.584;2023-05-07T16:51:15;24.70;51.10
42885;DHT22;28534;48.100;11.584;2023-05-07T16:52:16;24.80;51.20
42885;DHT22;28534;48.100;11.584;2023-05-07T16:53:18;24.70;51.20
42885;DHT22;28534;48.100;11.584;2023-05-07T16:54:19;24.80;51.20
42885;DHT22;28534;48.100;11.584;2023-05-07T16:55:21;24.80;51.20
42885;DHT22;28534;48.100;11.584;2023-05-07T16:56:22;24.80;51.20
42885;DHT22;28534;48.100;11.584;2023-05-07T16:57:24;24.80;51.20
42885;DHT22;28534;48.100;11.584;2023-05-07T16:58:24;24.80;51.20
42885;DHT22;28534;48.100;11.584;2023-05-07T16:59:27;24.80;51.20
42885;DHT22;28534;48.100;11.584;2023-05-07T17:00:31;24.80;51.20
42885;DHT22;28534;48.100;11.584;2023-05-07T17:01:33;24.80;51.00
42885;DHT22;28534;48.100;11.584;2023-05-07T17:02:34;24.80;51.00
42885;DHT22;28534;48.100;11.584;2023-05-07T17:03:36;24.80;51.00
42885;DHT22;28534;48.100;11.584;2023-05-07T17:04:38;24.80;51.00
42885;DHT22;28534;48.100;11.584;2023-05-07T17:05:40;24.80;51.00
42885;DHT22;28534;48.100;11.584;2023-05-07T17:06:41;24.70;51.10
42885;DHT22;28534;48.100;11.584;2023-05-07T17:07:42;24.80;51.10
42885;DHT22;28534;48.100;11.584;2023-05-07T17:08:43;24.70;51.00
42885;DHT22;28534;48.100;11.584;2023-05-07T17:09:45;24.70;50.90
42885;DHT22;28534;48.100;11.584;2023-05-07T17:10:46;24.70;51.20
42885;DHT22;28534;48.100;11.584;2023-05-07T17:11:48;24.80;51.30
42885;DHT22;28534;48.100;11.584;2023-05-07T17:12:48;24.70;51.20
42885;DHT22;28534;48.100;11.584;2023-05-07T17:13:50;24.70;51.20
42885;DHT22;28534;48.100;11.584;2023-05-07T17:14:51;24.70;51.30
42885;DHT22;28534;48.100;11.584;2023-05-07T17:15:53;24.80;51.30
42885;DHT22;28534;48.100;11.584;2023-05-07T17:16:53;24.80;51.30
42885;DHT22;28534;48.100;11.584;2023-05-07T17:17:55;24.70;51.30
42885;DHT22;28534;48.100;11.584;2023-05-07T17:18:56;24.80;51.30
42885;DHT22;28534;48.100;11.584;2023-05-07T17:19:59;24.80;51.20
42885;DHT22;28534;48.100;11.584;2023-05-07T17:21:00;24.80;51.20
42885;DHT22;28534;48.100;11.584;2023-05-07T17:22:02;24.80;51.40
42885;DHT22;28534;48.100;11.584;2023-05-07T17:23:03;24.80;51.40
42885;DHT22;28534;48.100;11.584;2023-05-07T17:24:05;24.80;51.30
42885;DHT22;28534;48.100;11.584;2023-05-07T17:25:07;24.80;51.30
42885;DHT22;28534;48.100;11.584;2023-05-07T17:26:12;24.80;51.20
42885;DHT22;28534;48.100;11.584;2023-05-07T17:27:13;24.80;51.20
42885;DHT22;28534;48.100;11.584;2023-05-07T17:28:14;24.80;51.30
42885;DHT22;28534;48.100;11.584;2023-05-07T17:29:15;24.80;51.50
42885;DHT22;28534;48.100;11.584;2023-05-07T17:30:18;24.80;51.50
42885;DHT22;28534;48.100;11.584;2023-05-07T17:31:19;24.80;51.50
42885;DHT22;28534;48.100;11.584;2023-05-07T17:32:21;24.80;51.60
42885;DHT22;28534;48.100;11.584;2023-05-07T17:33:21;24.70;51.60
42885;DHT22;28534;48.100;11.584;2023-05-07T17:34:23;24.70;51.70
42885;DHT22;28534;48.100;11.584;2023-05-07T17:35:25;24.80;51.80
42885;DHT22;28534;48.100;11.584;2023-05-07T17:36:27;24.80;51.70
42885;DHT22;28534;48.100;11.584;2023-05-07T17:37:28;24.80;51.70
42885;DHT22;28534;48.100;11.584;2023-05-07T17:38:30;24.80;51.50
42885;DHT22;28534;48.100;11.584;2023-05-07T17:39:31;24.80;51.50
42885;DHT22;28534;48.100;11.584;2023-05-07T17:40:33;24.80;51.50
42885;DHT22;28534;48.100;11.584;2023-05-07T17:41:34;24.80;51.50
42885;DHT22;28534;48.100;11.584;2023-05-07T17:42:36;24.80;51.70
42885;DHT22;28534;48.100;11.584;2023-05-07T17:43:37;24.80;51.80
42885;DHT22;28534;48.100;11.584;2023-05-07T17:44:38;24.80;51.80
42885;DHT22;28534;48.100;11.584;2023-05-07T17:45:39;24.80;51.50
42885;DHT22;28534;48.100;11.584;2023-05-07T17:46:41;24.80;51.50
42885;DHT22;28534;48.100;11.584;2023-05-07T17:47:42;24.80;51.60
42885;DHT22;28534;48.100;11.584;2023-05-07T17:48:44;24.80;51.70
42885;DHT22;28534;48.100;11.584;2023-05-07T17:49:45;24.80;51.80
42885;DHT22;28534;48.100;11.584;2023-05-07T17:50:47;24.80;51.90
42885;DHT22;28534;48.100;11.584;2023-05-07T17:51:49;24.80;52.00
42885;DHT22;28534;48.100;11.584;2023-05-07T17:52:50;24.80;52.00
42885;DHT22;28534;48.100;11.584;2023-05-07T17:53:51;24.80;52.00
42885;DHT22;28534;48.100;11.584;2023-05-07T17:54:52;24.80;52.00
42885;DHT22;28534;48.100;11.584;2023-05-07T17:55:54;24.80;52.00
42885;DHT22;28534;48.100;11.584;2023-05-07T17:56:55;24.80;52.00
42885;DHT22;28534;48.100;11.584;2023-05-07T17:57:57;24.80;52.10
42885;DHT22;28534;48.100;11.584;2023-05-07T17:58:57;24.80;52.00
42885;DHT22;28534;48.100;11.584;2023-05-07T17:59:59;24.90;52.10
42885;DHT22;28534;48.100;11.584;2023-05-07T18:01:00;24.80;52.10
42885;DHT22;28534;48.100;11.584;2023-05-07T18:02:02;24.80;52.10
42885;DHT22;28534;48.100;11.584;2023-05-07T18:03:04;24.90;52.10
42885;DHT22;28534;48.100;11.584;2023-05-07T18:04:06;24.90;52.10
42885;DHT22;28534;48.100;11.584;2023-05-07T18:05:08;24.80;52.10
42885;DHT22;28534;48.100;11.584;2023-05-07T18:06:11;24.90;52.10
42885;DHT22;28534;48.100;11.584;2023-05-07T18:07:17;24.80;52.10
42885;DHT22;28534;48.100;11.584;2023-05-07T18:08:18;24.90;52.20
42885;DHT22;28534;48.100;11.584;2023-05-07T18:09:20;24.90;52.20
42885;DHT22;28534;48.100;11.584;2023-05-07T18:10:21;24.90;52.20
42885;DHT22;28534;48.100;11.584;2023-05-07T18:11:23;24.90;52.20
42885;DHT22;28534;48.100;11.584;2023-05-07T18:12:25;24.90;52.20
42885;DHT22;28534;48.100;11.584;2023-05-07T18:13:26;24.80;52.20
42885;DHT22;28534;48.100;11.584;2023-05-07T18:14:28;24.90;52.20
42885;DHT22;28534;48.100;11.584;2023-05-07T18:15:29;24.80;52.20
42885;DHT22;28534;48.100;11.584;2023-05-07T18:16:30;24.80;52.20
42885;DHT22;28534;48.100;11.584;2023-05-07T18:17:31;24.90;52.30
42885;DHT22;28534;48.100;11.584;2023-05-07T18:18:33;24.90;52.30
42885;DHT22;28534;48.100;11.584;2023-05-07T18:19:35;24.80;52.20
42885;DHT22;28534;48.100;11.584;2023-05-07T18:20:37;24.80;52.30
42885;DHT22;28534;48.100;11.584;2023-05-07T18:21:39;24.90;52.30
42885;DHT22;28534;48.100;11.584;2023-05-07T18:22:40;24.90;52.40
42885;DHT22;28534;48.100;11.584;2023-05-07T18:23:41;24.90;52.40
42885;DHT22;28534;48.100;11.584;2023-05-07T18:24:43;24.90;52.40
42885;DHT22;28534;48.100;11.584;2023-05-07T18:25:45;24.90;52.40
42885;DHT22;28534;48.100;11.584;2023-05-07T18:26:47;24.80;53.00
42885;DHT22;28534;48.100;11.584;2023-05-07T18:27:49;24.90;52.40
42885;DHT22;28534;48.100;11.584;2023-05-07T18:28:51;24.90;52.40
42885;DHT22;28534;48.100;11.584;2023-05-07T18:29:51;24.90;52.40
42885;DHT22;28534;48.100;11.584;2023-05-07T18:30:53;24.80;52.40
42885;DHT22;28534;48.100;11.584;2023-05-07T18:31:54;24.90;52.50
42885;DHT22;28534;48.100;11.584;2023-05-07T18:32:56;24.80;52.50
42885;DHT22;28534;48.100;11.584;2023-05-07T18:33:56;24.80;52.50
42885;DHT22;28534;48.100;11.584;2023-05-07T18:34:58;24.80;52.50
42885;DHT22;28534;48.100;11.584;2023-05-07T18:35:59;24.90;52.60
42885;DHT22;28534;48.100;11.584;2023-05-07T18:37:02;24.90;52.60
42885;DHT22;28534;48.100;11.584;2023-05-07T18:38:04;24.90;52.60
42885;DHT22;28534;48.100;11.584;2023-05-07T18:39:05;24.80;52.60
42885;DHT22;28534;48.100;11.584;2023-05-07T18:40:08;24.90;52.70
42885;DHT22;28534;48.100;11.584;2023-05-07T18:41:09;24.80;52.70
42885;DHT22;28534;48.100;11.584;2023-05-07T18:42:11;24.90;52.70
42885;DHT22;28534;48.100;11.584;2023-05-07T18:43:13;24.90;52.70
42885;DHT22;28534;48.100;11.584;2023-05-07T18:44:15;24.90;52.70
42885;DHT22;28534;48.100;11.584;2023-05-07T18:45:16;24.90;52.70
42885;DHT22;28534;48.100;11.584;2023-05-07T18:46:17;24.90;52.70
